الصفحة الرئيسية
METAR-TAF:

METAR-TAF

مطار :

Cortez, كولورادو, الولايات المتحدة

دائرة عرض: 37-18-23N, خط طول: 108-37-32W, ارتفاع: 1803 متر

مراقبة الطقس الحالي

تاريخ ووقت الإصدار 13 دقيقة قبل الساعة 23:53UTC
رياح هادئة
درجة الحرارة 8°درجة مئوية
الرطوبة 81%
ضغط 1009 hPa
الرؤية: 16.1 كم
غيوم قليلة على ارتفاع 2700 قدم
ملبد بالغيوم على ارتفاع 3800 قدم

METAR: KCEZ 202353Z AUTO 00000KT 10SM FEW027 OVC038 08/05 A2979 RMK AO2 RAE2256B06E38 SLP050 P0001 60011 T00830050 10111 20078 53013

زمن: 17:06 (00:06 UTC)


TAF: مفقودة

أرصاد الطقس والتوقعات من أكثر من 4000 مطار (تقارير الطقس للمطار METAR والتنبؤ بالطقس بالمطارTAF).

المحطات المتاحة هي النقط الصفراء والحمراء على الخريطة.

حرك المؤشر فوق النقطة لمعرفة اسم المحطة.

ثم انقر لمعرفة أرصاد وتوقعات الطقس.

لتغيير الخارطة: اضغط على الأزرار الخضراء مع رمز الصليب الأسود للتكبير. على الزر الأخضر مع شرطة للتصغير، أو على الأسهم الخضراء للخرائط المجاورة.


METAR-TAF: